sensor_id;sensor_type;location;lat;lon;timestamp;temperature;humidity
15926;DHT22;8062;53.882;10.642;2022-10-22T00:00:06;13.00;99.90
15926;DHT22;8062;53.882;10.642;2022-10-22T00:01:07;13.00;99.90
15926;DHT22;8062;53.882;10.642;2022-10-22T00:02:08;13.10;99.90
15926;DHT22;8062;53.882;10.642;2022-10-22T00:03:09;13.10;99.90
15926;DHT22;8062;53.882;10.642;2022-10-22T00:04:10;13.20;99.90
15926;DHT22;8062;53.882;10.642;2022-10-22T00:05:12;13.20;99.90
15926;DHT22;8062;53.882;10.642;2022-10-22T00:06:13;13.20;99.90
15926;DHT22;8062;53.882;10.642;2022-10-22T00:07:15;13.20;99.90
15926;DHT22;8062;53.882;10.642;2022-10-22T00:08:16;13.20;99.90
15926;DHT22;8062;53.882;10.642;2022-10-22T00:09:17;13.20;99.90
15926;DHT22;8062;53.882;10.642;2022-10-22T00:10:18;13.20;99.90
15926;DHT22;8062;53.882;10.642;2022-10-22T00:11:19;13.30;99.90
15926;DHT22;8062;53.882;10.642;2022-10-22T00:12:20;13.30;99.90
15926;DHT22;8062;53.882;10.642;2022-10-22T00:13:22;13.30;99.90
15926;DHT22;8062;53.882;10.642;2022-10-22T00:14:23;13.30;99.90
15926;DHT22;8062;53.882;10.642;2022-10-22T00:15:24;13.30;99.90
15926;DHT22;8062;53.882;10.642;2022-10-22T00:16:25;13.30;99.90
15926;DHT22;8062;53.882;10.642;2022-10-22T00:17:26;13.30;99.90
15926;DHT22;8062;53.882;10.642;2022-10-22T00:18:27;13.30;99.90
15926;DHT22;8062;53.882;10.642;2022-10-22T00:19:28;13.30;99.90
15926;DHT22;8062;53.882;10.642;2022-10-22T00:20:29;13.30;99.90
15926;DHT22;8062;53.882;10.642;2022-10-22T00:21:30;13.30;99.90
15926;DHT22;8062;53.882;10.642;2022-10-22T00:22:31;13.30;99.90
15926;DHT22;8062;53.882;10.642;2022-10-22T00:23:33;13.30;99.90
15926;DHT22;8062;53.882;10.642;2022-10-22T00:24:35;13.30;99.90
15926;DHT22;8062;53.882;10.642;2022-10-22T00:25:36;13.30;99.90
15926;DHT22;8062;53.882;10.642;2022-10-22T00:26:37;13.30;99.90
15926;DHT22;8062;53.882;10.642;2022-10-22T00:27:40;13.40;99.90
15926;DHT22;8062;53.882;10.642;2022-10-22T00:28:42;13.40;99.90
15926;DHT22;8062;53.882;10.642;2022-10-22T00:29:43;13.40;99.90
15926;DHT22;8062;53.882;10.642;2022-10-22T00:30:44;13.40;99.90
15926;DHT22;8062;53.882;10.642;2022-10-22T00:31:46;13.40;99.90
15926;DHT22;8062;53.882;10.642;2022-10-22T00:32:49;13.40;99.90
15926;DHT22;8062;53.882;10.642;2022-10-22T00:33:50;13.40;99.90
15926;DHT22;8062;53.882;10.642;2022-10-22T00:34:51;13.30;99.90
15926;DHT22;8062;53.882;10.642;2022-10-22T00:35:52;13.30;99.90
15926;DHT22;8062;53.882;10.642;2022-10-22T00:36:54;13.30;99.90
15926;DHT22;8062;53.882;10.642;2022-10-22T00:37:55;13.30;99.90
15926;DHT22;8062;53.882;10.642;2022-10-22T00:38:56;13.30;99.90
15926;DHT22;8062;53.882;10.642;2022-10-22T00:39:57;13.30;99.90
15926;DHT22;8062;53.882;10.642;2022-10-22T00:40:58;13.20;99.90
15926;DHT22;8062;53.882;10.642;2022-10-22T00:41:59;13.20;99.90
15926;DHT22;8062;53.882;10.642;2022-10-22T00:43:00;13.20;99.90
15926;DHT22;8062;53.882;10.642;2022-10-22T00:44:03;13.20;99.90
15926;DHT22;8062;53.882;10.642;2022-10-22T00:45:07;13.20;99.90
15926;DHT22;8062;53.882;10.642;2022-10-22T00:46:13;13.20;99.90
15926;DHT22;8062;53.882;10.642;2022-10-22T00:47:15;13.20;99.90
15926;DHT22;8062;53.882;10.642;2022-10-22T00:48:20;13.20;99.90
15926;DHT22;8062;53.882;10.642;2022-10-22T00:49:22;13.20;99.90
15926;DHT22;8062;53.882;10.642;2022-10-22T00:50:31;13.20;99.90
15926;DHT22;8062;53.882;10.642;2022-10-22T00:51:34;13.20;99.90
15926;DHT22;8062;53.882;10.642;2022-10-22T00:52:35;13.20;99.90
15926;DHT22;8062;53.882;10.642;2022-10-22T00:53:40;13.20;99.90
15926;DHT22;8062;53.882;10.642;2022-10-22T00:54:42;13.20;99.90
15926;DHT22;8062;53.882;10.642;2022-10-22T00:55:45;13.20;99.90
15926;DHT22;8062;53.882;10.642;2022-10-22T00:56:47;13.20;99.90
15926;DHT22;8062;53.882;10.642;2022-10-22T00:57:49;13.20;99.90
15926;DHT22;8062;53.882;10.642;2022-10-22T00:59:00;13.20;99.90
15926;DHT22;8062;53.882;10.642;2022-10-22T01:00:03;13.20;99.90
15926;DHT22;8062;53.882;10.642;2022-10-22T01:01:05;13.20;99.90
15926;DHT22;8062;53.882;10.642;2022-10-22T01:02:08;13.20;99.90
15926;DHT22;8062;53.882;10.642;2022-10-22T01:03:09;13.20;99.90
15926;DHT22;8062;53.882;10.642;2022-10-22T01:04:10;13.20;99.90
15926;DHT22;8062;53.882;10.642;2022-10-22T01:05:11;13.20;99.90
15926;DHT22;8062;53.882;10.642;2022-10-22T01:06:26;13.20;99.90
15926;DHT22;8062;53.882;10.642;2022-10-22T01:07:28;13.20;99.90
15926;DHT22;8062;53.882;10.642;2022-10-22T01:08:42;13.20;99.90
15926;DHT22;8062;53.882;10.642;2022-10-22T01:14:20;13.20;99.90
15926;DHT22;8062;53.882;10.642;2022-10-22T01:15:25;13.20;99.90
15926;DHT22;8062;53.882;10.642;2022-10-22T01:17:00;13.20;99.90
15926;DHT22;8062;53.882;10.642;2022-10-22T01:18:14;13.30;99.90
15926;DHT22;8062;53.882;10.642;2022-10-22T01:22:04;13.20;99.90
15926;DHT22;8062;53.882;10.642;2022-10-22T01:25:50;13.20;99.90
15926;DHT22;8062;53.882;10.642;2022-10-22T01:27:10;13.20;99.90
15926;DHT22;8062;53.882;10.642;2022-10-22T01:29:49;13.20;99.90
15926;DHT22;8062;53.882;10.642;2022-10-22T01:30:52;13.20;99.90
15926;DHT22;8062;53.882;10.642;2022-10-22T01:32:02;13.30;99.90
15926;DHT22;8062;53.882;10.642;2022-10-22T01:33:08;13.30;99.90
15926;DHT22;8062;53.882;10.642;2022-10-22T01:34:13;13.30;99.90
15926;DHT22;8062;53.882;10.642;2022-10-22T01:35:19;13.30;99.90
15926;DHT22;8062;53.882;10.642;2022-10-22T01:36:21;13.30;99.90
15926;DHT22;8062;53.882;10.642;2022-10-22T01:37:26;13.30;99.90
15926;DHT22;8062;53.882;10.642;2022-10-22T01:38:28;13.30;99.90
15926;DHT22;8062;53.882;10.642;2022-10-22T01:39:30;13.30;99.90
15926;DHT22;8062;53.882;10.642;2022-10-22T01:40:33;13.30;99.90
15926;DHT22;8062;53.882;10.642;2022-10-22T01:41:35;13.30;99.90
15926;DHT22;8062;53.882;10.642;2022-10-22T01:42:36;13.30;99.90
15926;DHT22;8062;53.882;10.642;2022-10-22T01:43:37;13.40;99.90
15926;DHT22;8062;53.882;10.642;2022-10-22T01:44:38;13.40;99.90
15926;DHT22;8062;53.882;10.642;2022-10-22T01:45:46;13.40;99.90
15926;DHT22;8062;53.882;10.642;2022-10-22T01:46:50;13.40;99.90
15926;DHT22;8062;53.882;10.642;2022-10-22T01:49:21;13.40;99.90
15926;DHT22;8062;53.882;10.642;2022-10-22T01:55:29;13.40;99.90
15926;DHT22;8062;53.882;10.642;2022-10-22T02:03:28;13.50;99.90
15926;DHT22;8062;53.882;10.642;2022-10-22T02:04:52;13.50;99.90
15926;DHT22;8062;53.882;10.642;2022-10-22T02:05:57;13.50;99.90
15926;DHT22;8062;53.882;10.642;2022-10-22T02:07:02;13.50;99.90
15926;DHT22;8062;53.882;10.642;2022-10-22T02:08:13;13.50;99.90
15926;DHT22;8062;53.882;10.642;2022-10-22T02:09:16;13.60;99.90
15926;DHT22;8062;53.882;10.642;2022-10-22T02:10:20;13.60;99.90
15926;DHT22;8062;53.882;10.642;2022-10-22T02:11:21;13.70;99.90
15926;DHT22;8062;53.882;10.642;2022-10-22T02:12:24;13.60;99.90
15926;DHT22;8062;53.882;10.642;2022-10-22T02:13:30;13.60;99.90
15926;DHT22;8062;53.882;10.642;2022-10-22T02:14:36;13.70;99.90
15926;DHT22;8062;53.882;10.642;2022-10-22T02:15:39;13.70;99.90
15926;DHT22;8062;53.882;10.642;2022-10-22T02:16:42;13.70;99.90
15926;DHT22;8062;53.882;10.642;2022-10-22T02:17:46;13.80;99.90
15926;DHT22;8062;53.882;10.642;2022-10-22T02:18:49;13.80;99.90
15926;DHT22;8062;53.882;10.642;2022-10-22T02:20:17;13.80;99.90
15926;DHT22;8062;53.882;10.642;2022-10-22T02:21:19;13.80;99.90
15926;DHT22;8062;53.882;10.642;2022-10-22T02:22:20;13.80;99.90
15926;DHT22;8062;53.882;10.642;2022-10-22T02:23:22;13.90;99.90
15926;DHT22;8062;53.882;10.642;2022-10-22T02:24:23;13.80;99.90
15926;DHT22;8062;53.882;10.642;2022-10-22T02:25:29;13.80;99.90
15926;DHT22;8062;53.882;10.642;2022-10-22T02:26:39;13.80;99.90
15926;DHT22;8062;53.882;10.642;2022-10-22T02:29:29;13.90;99.90
15926;DHT22;8062;53.882;10.642;2022-10-22T02:30:35;13.90;99.90
15926;DHT22;8062;53.882;10.642;2022-10-22T02:31:40;13.90;99.90
15926;DHT22;8062;53.882;10.642;2022-10-22T02:34:00;14.00;99.90
15926;DHT22;8062;53.882;10.642;2022-10-22T02:35:05;14.00;99.90
15926;DHT22;8062;53.882;10.642;2022-10-22T02:36:07;14.00;99.90
15926;DHT22;8062;53.882;10.642;2022-10-22T02:37:09;14.10;99.90
15926;DHT22;8062;53.882;10.642;2022-10-22T02:38:11;14.10;99.90
15926;DHT22;8062;53.882;10.642;2022-10-22T02:39:13;14.10;99.90
15926;DHT22;8062;53.882;10.642;2022-10-22T02:40:16;14.10;99.90
15926;DHT22;8062;53.882;10.642;2022-10-22T02:41:17;14.10;99.90
15926;DHT22;8062;53.882;10.642;2022-10-22T02:42:19;14.10;99.90
15926;DHT22;8062;53.882;10.642;2022-10-22T02:43:23;14.10;99.90
15926;DHT22;8062;53.882;10.642;2022-10-22T02:44:24;14.10;99.90
15926;DHT22;8062;53.882;10.642;2022-10-22T02:45:26;14.10;99.90
15926;DHT22;8062;53.882;10.642;2022-10-22T02:46:27;14.00;99.90
15926;DHT22;8062;53.882;10.642;2022-10-22T02:47:28;14.00;99.90
15926;DHT22;8062;53.882;10.642;2022-10-22T02:48:29;14.00;99.90
15926;DHT22;8062;53.882;10.642;2022-10-22T02:49:30;14.00;99.90
15926;DHT22;8062;53.882;10.642;2022-10-22T02:50:31;14.10;99.90
15926;DHT22;8062;53.882;10.642;2022-10-22T02:51:33;14.00;99.90
15926;DHT22;8062;53.882;10.642;2022-10-22T02:52:34;14.00;99.90
15926;DHT22;8062;53.882;10.642;2022-10-22T02:53:35;14.00;99.90
15926;DHT22;8062;53.882;10.642;2022-10-22T02:54:36;14.00;99.90
15926;DHT22;8062;53.882;10.642;2022-10-22T02:55:37;14.00;99.90
15926;DHT22;8062;53.882;10.642;2022-10-22T02:56:38;14.00;99.90
15926;DHT22;8062;53.882;10.642;2022-10-22T02:57:39;14.00;99.90
15926;DHT22;8062;53.882;10.642;2022-10-22T02:58:40;14.00;99.90
15926;DHT22;8062;53.882;10.642;2022-10-22T02:59:41;14.00;99.90
15926;DHT22;8062;53.882;10.642;2022-10-22T03:00:42;14.00;99.90
15926;DHT22;8062;53.882;10.642;2022-10-22T03:01:44;14.00;99.90
15926;DHT22;8062;53.882;10.642;2022-10-22T03:02:45;14.00;99.90
15926;DHT22;8062;53.882;10.642;2022-10-22T03:03:46;13.90;99.90
15926;DHT22;8062;53.882;10.642;2022-10-22T03:04:47;14.00;99.90
15926;DHT22;8062;53.882;10.642;2022-10-22T03:05:49;14.00;99.90
15926;DHT22;8062;53.882;10.642;2022-10-22T03:06:51;14.00;99.90
15926;DHT22;8062;53.882;10.642;2022-10-22T03:07:52;14.00;99.90
15926;DHT22;8062;53.882;10.642;2022-10-22T03:08:53;14.00;99.90
15926;DHT22;8062;53.882;10.642;2022-10-22T03:09:54;14.00;99.90
15926;DHT22;8062;53.882;10.642;2022-10-22T03:10:55;14.00;99.90
15926;DHT22;8062;53.882;10.642;2022-10-22T03:11:56;13.90;99.90
15926;DHT22;8062;53.882;10.642;2022-10-22T03:12:58;13.90;99.90
15926;DHT22;8062;53.882;10.642;2022-10-22T03:13:59;13.90;99.90
15926;DHT22;8062;53.882;10.642;2022-10-22T03:15:00;13.90;99.90
15926;DHT22;8062;53.882;10.642;2022-10-22T03:16:01;13.90;99.90
15926;DHT22;8062;53.882;10.642;2022-10-22T03:17:02;13.90;99.90
15926;DHT22;8062;53.882;10.642;2022-10-22T03:18:03;13.90;99.90
15926;DHT22;8062;53.882;10.642;2022-10-22T03:19:04;13.90;99.90
15926;DHT22;8062;53.882;10.642;2022-10-22T03:20:06;13.90;99.90
15926;DHT22;8062;53.882;10.642;2022-10-22T03:21:12;13.80;99.90
15926;DHT22;8062;53.882;10.642;2022-10-22T03:22:24;13.80;99.90
15926;DHT22;8062;53.882;10.642;2022-10-22T03:23:26;13.80;99.90
15926;DHT22;8062;53.882;10.642;2022-10-22T03:24:39;13.80;99.90
15926;DHT22;8062;53.882;10.642;2022-10-22T03:25:42;13.80;99.90
15926;DHT22;8062;53.882;10.642;2022-10-22T03:26:45;13.80;99.90
15926;DHT22;8062;53.882;10.642;2022-10-22T03:27:49;13.70;99.90
15926;DHT22;8062;53.882;10.642;2022-10-22T03:28:52;13.70;99.90
15926;DHT22;8062;53.882;10.642;2022-10-22T03:29:54;13.70;99.90
15926;DHT22;8062;53.882;10.642;2022-10-22T03:30:56;13.70;99.90
15926;DHT22;8062;53.882;10.642;2022-10-22T03:31:57;13.70;99.90
15926;DHT22;8062;53.882;10.642;2022-10-22T03:32:58;13.80;99.90
15926;DHT22;8062;53.882;10.642;2022-10-22T03:33:59;13.90;99.90
15926;DHT22;8062;53.882;10.642;2022-10-22T03:35:00;13.90;99.90
15926;DHT22;8062;53.882;10.642;2022-10-22T03:36:01;13.90;99.90
15926;DHT22;8062;53.882;10.642;2022-10-22T03:37:02;13.90;99.90
15926;DHT22;8062;53.882;10.642;2022-10-22T03:38:03;13.90;99.90
15926;DHT22;8062;53.882;10.642;2022-10-22T03:39:05;13.90;99.90
15926;DHT22;8062;53.882;10.642;2022-10-22T03:40:07;14.00;99.90
15926;DHT22;8062;53.882;10.642;2022-10-22T03:41:08;14.00;99.90
15926;DHT22;8062;53.882;10.642;2022-10-22T03:42:10;14.00;99.90
15926;DHT22;8062;53.882;10.642;2022-10-22T03:43:13;14.00;99.90
15926;DHT22;8062;53.882;10.642;2022-10-22T03:44:15;14.00;99.90
15926;DHT22;8062;53.882;10.642;2022-10-22T03:45:17;14.00;99.90
15926;DHT22;8062;53.882;10.642;2022-10-22T03:46:19;14.00;99.90
15926;DHT22;8062;53.882;10.642;2022-10-22T03:47:20;14.00;99.90
15926;DHT22;8062;53.882;10.642;2022-10-22T03:48:24;14.00;99.90
15926;DHT22;8062;53.882;10.642;2022-10-22T03:49:25;14.00;99.90
15926;DHT22;8062;53.882;10.642;2022-10-22T03:50:26;14.00;99.90
15926;DHT22;8062;53.882;10.642;2022-10-22T03:51:28;14.00;99.90
15926;DHT22;8062;53.882;10.642;2022-10-22T03:52:38;14.00;99.90
15926;DHT22;8062;53.882;10.642;2022-10-22T03:53:39;14.00;99.90
15926;DHT22;8062;53.882;10.642;2022-10-22T03:54:40;14.00;99.90
15926;DHT22;8062;53.882;10.642;2022-10-22T03:55:42;14.00;99.90
15926;DHT22;8062;53.882;10.642;2022-10-22T03:56:43;14.00;99.90
15926;DHT22;8062;53.882;10.642;2022-10-22T03:57:44;13.90;99.90
15926;DHT22;8062;53.882;10.642;2022-10-22T03:58:45;13.90;99.90
15926;DHT22;8062;53.882;10.642;2022-10-22T03:59:46;13.90;99.90
15926;DHT22;8062;53.882;10.642;2022-10-22T04:00:47;13.80;99.90
15926;DHT22;8062;53.882;10.642;2022-10-22T04:01:48;13.80;99.90
15926;DHT22;8062;53.882;10.642;2022-10-22T04:02:49;13.80;99.90
15926;DHT22;8062;53.882;10.642;2022-10-22T04:03:50;13.70;99.90
15926;DHT22;8062;53.882;10.642;2022-10-22T04:04:51;13.60;99.90
15926;DHT22;8062;53.882;10.642;2022-10-22T04:05:52;13.60;99.90
15926;DHT22;8062;53.882;10.642;2022-10-22T04:06:53;13.60;99.90
15926;DHT22;8062;53.882;10.642;2022-10-22T04:07:54;13.50;99.90
15926;DHT22;8062;53.882;10.642;2022-10-22T04:08:56;13.40;99.90
15926;DHT22;8062;53.882;10.642;2022-10-22T04:09:58;13.40;99.90
15926;DHT22;8062;53.882;10.642;2022-10-22T04:11:00;13.40;99.90
15926;DHT22;8062;53.882;10.642;2022-10-22T04:12:01;13.30;99.90
15926;DHT22;8062;53.882;10.642;2022-10-22T04:13:02;13.30;99.90
15926;DHT22;8062;53.882;10.642;2022-10-22T04:14:03;13.20;99.90
15926;DHT22;8062;53.882;10.642;2022-10-22T04:15:04;13.20;99.90
15926;DHT22;8062;53.882;10.642;2022-10-22T04:16:14;13.20;99.90
15926;DHT22;8062;53.882;10.642;2022-10-22T04:17:15;13.10;99.90
15926;DHT22;8062;53.882;10.642;2022-10-22T04:18:17;13.10;99.90
15926;DHT22;8062;53.882;10.642;2022-10-22T04:19:19;13.00;99.90
15926;DHT22;8062;53.882;10.642;2022-10-22T04:20:20;13.00;99.90
15926;DHT22;8062;53.882;10.642;2022-10-22T04:21:21;13.00;99.90
15926;DHT22;8062;53.882;10.642;2022-10-22T04:22:22;12.90;99.90
15926;DHT22;8062;53.882;10.642;2022-10-22T04:23:23;12.90;99.90
15926;DHT22;8062;53.882;10.642;2022-10-22T04:24:24;12.90;99.90
15926;DHT22;8062;53.882;10.642;2022-10-22T04:25:25;12.80;99.90
15926;DHT22;8062;53.882;10.642;2022-10-22T04:26:27;12.80;99.90
15926;DHT22;8062;53.882;10.642;2022-10-22T04:27:32;12.70;99.90
15926;DHT22;8062;53.882;10.642;2022-10-22T04:28:34;12.60;99.90
15926;DHT22;8062;53.882;10.642;2022-10-22T04:29:35;12.60;99.90
15926;DHT22;8062;53.882;10.642;2022-10-22T04:30:36;12.60;99.90
15926;DHT22;8062;53.882;10.642;2022-10-22T04:31:37;12.50;99.90
15926;DHT22;8062;53.882;10.642;2022-10-22T04:32:38;12.50;99.90
15926;DHT22;8062;53.882;10.642;2022-10-22T04:33:39;12.50;99.90
15926;DHT22;8062;53.882;10.642;2022-10-22T04:34:41;12.50;99.90
15926;DHT22;8062;53.882;10.642;2022-10-22T04:35:42;12.40;99.90
15926;DHT22;8062;53.882;10.642;2022-10-22T04:36:43;12.40;99.90
15926;DHT22;8062;53.882;10.642;2022-10-22T04:37:44;12.40;99.90
15926;DHT22;8062;53.882;10.642;2022-10-22T04:38:46;12.30;99.90
15926;DHT22;8062;53.882;10.642;2022-10-22T04:39:47;12.30;99.90
15926;DHT22;8062;53.882;10.642;2022-10-22T04:40:48;12.20;99.90
15926;DHT22;8062;53.882;10.642;2022-10-22T04:41:49;12.20;99.90
15926;DHT22;8062;53.882;10.642;2022-10-22T04:42:50;12.10;99.90
15926;DHT22;8062;53.882;10.642;2022-10-22T04:43:53;12.10;99.90
15926;DHT22;8062;53.882;10.642;2022-10-22T04:44:54;12.10;99.90
15926;DHT22;8062;53.882;10.642;2022-10-22T04:45:59;12.00;99.90
15926;DHT22;8062;53.882;10.642;2022-10-22T04:47:00;12.00;99.90
15926;DHT22;8062;53.882;10.642;2022-10-22T04:48:01;12.00;99.90
15926;DHT22;8062;53.882;10.642;2022-10-22T04:49:02;11.90;99.90
15926;DHT22;8062;53.882;10.642;2022-10-22T04:50:04;11.90;99.90
15926;DHT22;8062;53.882;10.642;2022-10-22T04:51:07;11.90;99.90
15926;DHT22;8062;53.882;10.642;2022-10-22T04:52:09;11.90;99.90
15926;DHT22;8062;53.882;10.642;2022-10-22T04:53:10;11.80;99.90
15926;DHT22;8062;53.882;10.642;2022-10-22T04:54:11;11.80;99.90
15926;DHT22;8062;53.882;10.642;2022-10-22T04:55:12;11.80;99.90
15926;DHT22;8062;53.882;10.642;2022-10-22T04:56:15;11.80;99.90
15926;DHT22;8062;53.882;10.642;2022-10-22T04:57:19;11.80;99.90
15926;DHT22;8062;53.882;10.642;2022-10-22T04:58:20;11.80;99.90
15926;DHT22;8062;53.882;10.642;2022-10-22T04:59:21;11.80;99.90
15926;DHT22;8062;53.882;10.642;2022-10-22T05:00:22;11.80;99.90
15926;DHT22;8062;53.882;10.642;2022-10-22T05:01:48;11.70;99.90
15926;DHT22;8062;53.882;10.642;2022-10-22T05:02:50;11.70;99.90
15926;DHT22;8062;53.882;10.642;2022-10-22T05:03:52;11.70;99.90
15926;DHT22;8062;53.882;10.642;2022-10-22T05:04:53;11.70;99.90
15926;DHT22;8062;53.882;10.642;2022-10-22T05:05:54;11.70;99.90
15926;DHT22;8062;53.882;10.642;2022-10-22T05:06:55;11.70;99.90
15926;DHT22;8062;53.882;10.642;2022-10-22T05:07:56;11.70;99.90
15926;DHT22;8062;53.882;10.642;2022-10-22T05:09:02;11.60;99.90
15926;DHT22;8062;53.882;10.642;2022-10-22T05:10:04;11.60;99.90
15926;DHT22;8062;53.882;10.642;2022-10-22T05:11:13;11.50;99.90
15926;DHT22;8062;53.882;10.642;2022-10-22T05:12:15;11.60;99.90
15926;DHT22;8062;53.882;10.642;2022-10-22T05:13:16;11.50;99.90
15926;DHT22;8062;53.882;10.642;2022-10-22T05:14:20;11.50;99.90
15926;DHT22;8062;53.882;10.642;2022-10-22T05:15:21;11.50;99.90
15926;DHT22;8062;53.882;10.642;2022-10-22T05:16:23;11.50;99.90
15926;DHT22;8062;53.882;10.642;2022-10-22T05:17:24;11.50;99.90
15926;DHT22;8062;53.882;10.642;2022-10-22T05:18:25;11.40;99.90
15926;DHT22;8062;53.882;10.642;2022-10-22T05:19:28;11.40;99.90
15926;DHT22;8062;53.882;10.642;2022-10-22T05:20:30;11.40;99.90
15926;DHT22;8062;53.882;10.642;2022-10-22T05:21:31;11.40;99.90
15926;DHT22;8062;53.882;10.642;2022-10-22T05:22:33;11.40;99.90
15926;DHT22;8062;53.882;10.642;2022-10-22T05:23:34;11.40;99.90
15926;DHT22;8062;53.882;10.642;2022-10-22T05:24:35;11.30;99.90
15926;DHT22;8062;53.882;10.642;2022-10-22T05:25:38;11.30;99.90
15926;DHT22;8062;53.882;10.642;2022-10-22T05:26:39;11.30;99.90
15926;DHT22;8062;53.882;10.642;2022-10-22T05:27:40;11.30;99.90
15926;DHT22;8062;53.882;10.642;2022-10-22T05:28:41;11.30;99.90
15926;DHT22;8062;53.882;10.642;2022-10-22T05:29:42;11.30;99.90
15926;DHT22;8062;53.882;10.642;2022-10-22T05:30:52;11.30;99.90
15926;DHT22;8062;53.882;10.642;2022-10-22T05:31:54;11.30;99.90
15926;DHT22;8062;53.882;10.642;2022-10-22T05:32:55;11.30;99.90
15926;DHT22;8062;53.882;10.642;2022-10-22T05:33:56;11.30;99.90
15926;DHT22;8062;53.882;10.642;2022-10-22T05:34:57;11.30;99.90
15926;DHT22;8062;53.882;10.642;2022-10-22T05:35:58;11.30;99.90
15926;DHT22;8062;53.882;10.642;2022-10-22T05:36:59;11.30;99.90
15926;DHT22;8062;53.882;10.642;2022-10-22T05:38:00;11.30;99.90
15926;DHT22;8062;53.882;10.642;2022-10-22T05:39:02;11.30;99.90
15926;DHT22;8062;53.882;10.642;2022-10-22T05:40:04;11.30;99.90
15926;DHT22;8062;53.882;10.642;2022-10-22T05:41:08;11.40;99.90
15926;DHT22;8062;53.882;10.642;2022-10-22T05:42:09;11.30;99.90
15926;DHT22;8062;53.882;10.642;2022-10-22T05:43:10;11.30;99.90
15926;DHT22;8062;53.882;10.642;2022-10-22T05:44:12;11.30;99.90
15926;DHT22;8062;53.882;10.642;2022-10-22T05:45:13;11.30;99.90
15926;DHT22;8062;53.882;10.642;2022-10-22T05:46:17;11.40;99.90
15926;DHT22;8062;53.882;10.642;2022-10-22T05:47:18;11.30;99.90
15926;DHT22;8062;53.882;10.642;2022-10-22T05:48:19;11.30;99.90
15926;DHT22;8062;53.882;10.642;2022-10-22T05:49:20;11.40;99.90
15926;DHT22;8062;53.882;10.642;2022-10-22T05:50:21;11.30;99.90
15926;DHT22;8062;53.882;10.642;2022-10-22T05:51:24;11.40;99.90
15926;DHT22;8062;53.882;10.642;2022-10-22T05:52:25;11.40;99.90
15926;DHT22;8062;53.882;10.642;2022-10-22T05:53:26;11.40;99.90
15926;DHT22;8062;53.882;10.642;2022-10-22T05:54:27;11.40;99.90
15926;DHT22;8062;53.882;10.642;2022-10-22T05:55:28;11.50;99.90
15926;DHT22;8062;53.882;10.642;2022-10-22T05:56:30;11.50;99.90
15926;DHT22;8062;53.882;10.642;2022-10-22T05:57:31;11.50;99.90
15926;DHT22;8062;53.882;10.642;2022-10-22T05:58:33;11.50;99.90
15926;DHT22;8062;53.882;10.642;2022-10-22T05:59:35;11.50;99.90
15926;DHT22;8062;53.882;10.642;2022-10-22T06:00:36;11.50;99.90
15926;DHT22;8062;53.882;10.642;2022-10-22T06:01:38;11.50;99.90
15926;DHT22;8062;53.882;10.642;2022-10-22T06:02:39;11.50;99.90
15926;DHT22;8062;53.882;10.642;2022-10-22T06:03:40;11.50;99.90
15926;DHT22;8062;53.882;10.642;2022-10-22T06:04:41;11.50;99.90
15926;DHT22;8062;53.882;10.642;2022-10-22T06:05:42;11.60;99.90
15926;DHT22;8062;53.882;10.642;2022-10-22T06:06:46;11.60;99.90
15926;DHT22;8062;53.882;10.642;2022-10-22T06:07:47;11.60;99.90
15926;DHT22;8062;53.882;10.642;2022-10-22T06:08:50;11.60;99.90
15926;DHT22;8062;53.882;10.642;2022-10-22T06:09:51;11.70;99.90
15926;DHT22;8062;53.882;10.642;2022-10-22T06:10:53;11.60;99.90
15926;DHT22;8062;53.882;10.642;2022-10-22T06:11:55;11.70;99.90
15926;DHT22;8062;53.882;10.642;2022-10-22T06:12:56;11.80;99.90
15926;DHT22;8062;53.882;10.642;2022-10-22T06:13:58;11.70;99.90
15926;DHT22;8062;53.882;10.642;2022-10-22T06:14:59;11.80;99.90
15926;DHT22;8062;53.882;10.642;2022-10-22T06:16:00;11.90;99.90
15926;DHT22;8062;53.882;10.642;2022-10-22T06:17:01;11.90;99.90
15926;DHT22;8062;53.882;10.642;2022-10-22T06:18:02;12.00;99.90
15926;DHT22;8062;53.882;10.642;2022-10-22T06:19:03;12.00;99.90
15926;DHT22;8062;53.882;10.642;2022-10-22T06:20:05;12.10;99.90
15926;DHT22;8062;53.882;10.642;2022-10-22T06:21:08;12.10;99.90
15926;DHT22;8062;53.882;10.642;2022-10-22T06:22:10;12.20;99.90
15926;DHT22;8062;53.882;10.642;2022-10-22T06:23:11;12.30;99.90
15926;DHT22;8062;53.882;10.642;2022-10-22T06:24:13;12.30;99.90
15926;DHT22;8062;53.882;10.642;2022-10-22T06:25:14;12.40;99.90
15926;DHT22;8062;53.882;10.642;2022-10-22T06:26:15;12.40;99.90
15926;DHT22;8062;53.882;10.642;2022-10-22T06:27:17;12.50;99.90
15926;DHT22;8062;53.882;10.642;2022-10-22T06:28:18;12.50;99.90
15926;DHT22;8062;53.882;10.642;2022-10-22T06:29:20;12.60;99.90
15926;DHT22;8062;53.882;10.642;2022-10-22T06:30:21;12.60;99.90
15926;DHT22;8062;53.882;10.642;2022-10-22T06:31:22;12.60;99.90
15926;DHT22;8062;53.882;10.642;2022-10-22T06:32:23;12.60;99.90
15926;DHT22;8062;53.882;10.642;2022-10-22T06:33:26;12.70;99.90
15926;DHT22;8062;53.882;10.642;2022-10-22T06:34:27;12.70;99.90
15926;DHT22;8062;53.882;10.642;2022-10-22T06:35:28;12.70;99.90
15926;DHT22;8062;53.882;10.642;2022-10-22T06:36:29;12.80;99.90
15926;DHT22;8062;53.882;10.642;2022-10-22T06:37:30;12.80;99.90
15926;DHT22;8062;53.882;10.642;2022-10-22T06:38:31;12.80;99.90
15926;DHT22;8062;53.882;10.642;2022-10-22T06:39:32;12.90;99.90
15926;DHT22;8062;53.882;10.642;2022-10-22T06:40:33;12.90;99.90
15926;DHT22;8062;53.882;10.642;2022-10-22T06:41:34;12.90;99.90
15926;DHT22;8062;53.882;10.642;2022-10-22T06:42:35;13.00;99.90
15926;DHT22;8062;53.882;10.642;2022-10-22T06:43:37;13.00;99.90
15926;DHT22;8062;53.882;10.642;2022-10-22T06:44:38;13.00;99.90
15926;DHT22;8062;53.882;10.642;2022-10-22T06:45:39;13.10;99.90
15926;DHT22;8062;53.882;10.642;2022-10-22T06:46:40;13.10;99.90
15926;DHT22;8062;53.882;10.642;2022-10-22T06:47:41;13.10;99.90
15926;DHT22;8062;53.882;10.642;2022-10-22T06:48:46;13.10;99.90
15926;DHT22;8062;53.882;10.642;2022-10-22T06:49:48;13.20;99.90
15926;DHT22;8062;53.882;10.642;2022-10-22T06:50:49;13.20;99.90
15926;DHT22;8062;53.882;10.642;2022-10-22T06:51:53;13.20;99.90
15926;DHT22;8062;53.882;10.642;2022-10-22T06:52:55;13.20;99.90
15926;DHT22;8062;53.882;10.642;2022-10-22T06:53:57;13.30;99.90
15926;DHT22;8062;53.882;10.642;2022-10-22T06:54:58;13.30;99.90
15926;DHT22;8062;53.882;10.642;2022-10-22T06:56:11;13.30;99.90
15926;DHT22;8062;53.882;10.642;2022-10-22T06:57:12;13.30;99.90
15926;DHT22;8062;53.882;10.642;2022-10-22T06:58:13;13.40;99.90
15926;DHT22;8062;53.882;10.642;2022-10-22T06:59:14;13.30;99.90
15926;DHT22;8062;53.882;10.642;2022-10-22T07:00:15;13.40;99.90
15926;DHT22;8062;53.882;10.642;2022-10-22T07:01:19;13.30;99.90
15926;DHT22;8062;53.882;10.642;2022-10-22T07:02:20;13.30;99.90